createdAt,value
2018-08-25T00:00:17.067Z,75.37
2018-08-25T00:01:53.649Z,76.20
2018-08-25T00:03:29.054Z,76.87
2018-08-25T00:05:04.556Z,77.61
2018-08-25T00:06:40.000Z,77.58
2018-08-25T00:08:15.422Z,78.04
2018-08-25T00:09:50.880Z,78.31
2018-08-25T00:11:26.407Z,78.58
2018-08-25T00:13:01.883Z,78.95
2018-08-25T00:14:37.360Z,78.59
2018-08-25T00:16:12.848Z,77.92
2018-08-25T00:17:48.409Z,76.31
2018-08-25T00:19:23.933Z,75.37
2018-08-25T00:20:59.407Z,75.20
2018-08-25T00:22:34.907Z,75.15
2018-08-25T00:24:10.355Z,73.77
2018-08-25T00:25:45.820Z,72.51
2018-08-25T00:27:21.335Z,72.35
2018-08-25T00:28:56.798Z,71.22
2018-08-25T00:30:37.662Z,71.88
2018-08-25T00:32:13.105Z,71.67
2018-08-25T00:33:48.616Z,71.73
2018-08-25T00:35:24.151Z,71.61
2018-08-25T00:36:59.601Z,70.58
2018-08-25T00:38:35.149Z,71.00
2018-08-25T00:40:10.664Z,71.12
2018-08-25T00:41:46.402Z,71.36
2018-08-25T00:43:21.875Z,70.61
2018-08-25T00:44:57.552Z,70.68
2018-08-25T00:46:33.092Z,70.48
2018-08-25T00:48:08.529Z,69.69
2018-08-25T00:49:44.025Z,69.05
2018-08-25T00:51:19.565Z,69.68
2018-08-25T00:52:55.044Z,69.55
2018-08-25T00:54:30.485Z,70.28
2018-08-25T00:56:06.330Z,68.83
2018-08-25T00:57:41.753Z,68.67
2018-08-25T00:59:17.312Z,69.62
2018-08-25T01:00:53.191Z,69.68
2018-08-25T01:02:28.708Z,70.20
2018-08-25T01:04:04.188Z,70.07
2018-08-25T01:05:39.689Z,70.70
2018-08-25T01:07:15.519Z,70.07
2018-08-25T01:08:51.002Z,69.11
2018-08-25T01:10:26.458Z,68.04
2018-08-25T01:12:01.929Z,68.07
2018-08-25T01:13:37.530Z,68.69
2018-08-25T01:15:13.024Z,68.99
2018-08-25T01:16:48.469Z,69.93
2018-08-25T01:18:24.008Z,71.03
2018-08-25T01:19:59.479Z,71.18
2018-08-25T01:21:35.023Z,71.59
2018-08-25T01:23:10.874Z,71.64
2018-08-25T01:24:46.358Z,70.76
2018-08-25T01:26:21.816Z,70.25
2018-08-25T01:27:57.572Z,70.23
2018-08-25T01:29:33.074Z,69.83
2018-08-25T01:31:08.598Z,68.98
2018-08-25T01:32:44.039Z,69.29
2018-08-25T01:34:19.562Z,69.17
2018-08-25T01:35:55.038Z,68.73
2018-08-25T01:37:30.510Z,69.77
2018-08-25T01:39:08.148Z,70.29
2018-08-25T01:40:43.656Z,69.97
2018-08-25T01:42:20.047Z,70.11
2018-08-25T01:43:56.313Z,70.12
2018-08-25T01:45:31.785Z,69.42
2018-08-25T01:47:07.439Z,69.41
2018-08-25T01:48:42.856Z,69.53
2018-08-25T01:50:18.416Z,69.18
2018-08-25T01:51:53.894Z,69.57
2018-08-25T01:53:29.377Z,69.90
2018-08-25T01:55:05.850Z,70.97
2018-08-25T01:56:41.338Z,70.88
2018-08-25T01:58:23.133Z,71.20
2018-08-25T01:59:58.604Z,71.06
2018-08-25T02:01:34.054Z,70.86
2018-08-25T02:03:09.575Z,71.45
2018-08-25T02:04:45.799Z,71.90
2018-08-25T02:06:21.294Z,71.64
2018-08-25T02:07:57.216Z,72.42
2018-08-25T02:09:32.710Z,74.07
2018-08-25T02:11:08.175Z,74.12
2018-08-25T02:12:44.356Z,74.31
2018-08-25T02:14:19.809Z,74.91
2018-08-25T02:15:59.170Z,75.15
2018-08-25T02:17:35.520Z,75.57
2018-08-25T02:19:10.981Z,75.95
2018-08-25T02:20:46.444Z,75.87
2018-08-25T02:22:22.262Z,77.13
2018-08-25T02:23:58.201Z,77.36
2018-08-25T02:25:33.656Z,77.42
2018-08-25T02:27:09.746Z,77.68
2018-08-25T02:28:45.305Z,78.28
2018-08-25T02:30:20.776Z,77.66
2018-08-25T02:31:56.253Z,77.18
2018-08-25T02:33:32.225Z,77.82
2018-08-25T02:35:07.736Z,77.16
2018-08-25T02:36:43.430Z,77.01
2018-08-25T02:38:19.647Z,75.83
2018-08-25T02:39:55.496Z,74.70
2018-08-25T02:41:31.034Z,73.67
2018-08-25T02:43:06.512Z,73.22
2018-08-25T02:44:42.698Z,72.55
2018-08-25T02:46:18.188Z,72.82
2018-08-25T02:47:54.736Z,73.10
2018-08-25T02:49:30.268Z,73.39
2018-08-25T02:51:05.783Z,73.03
2018-08-25T02:52:42.351Z,72.40
2018-08-25T02:54:17.805Z,72.01
2018-08-25T02:55:53.283Z,71.41
2018-08-25T02:57:28.777Z,70.77
2018-08-25T02:59:04.378Z,70.78
2018-08-25T03:00:39.930Z,71.02
2018-08-25T03:02:15.405Z,70.11
2018-08-25T03:03:50.919Z,69.79
2018-08-25T03:05:26.400Z,70.61
2018-08-25T03:07:02.018Z,71.15
2018-08-25T03:08:37.465Z,71.29
2018-08-25T03:10:13.415Z,70.77
2018-08-25T03:11:48.898Z,71.63
2018-08-25T03:13:24.366Z,71.82
2018-08-25T03:14:59.805Z,72.55
2018-08-25T03:16:35.372Z,71.62
2018-08-25T03:18:10.845Z,72.33
2018-08-25T03:19:46.737Z,72.47
2018-08-25T03:21:22.218Z,72.78
2018-08-25T03:22:57.677Z,72.84
2018-08-25T03:24:33.134Z,73.32
2018-08-25T03:26:08.650Z,73.72
2018-08-25T03:27:44.157Z,73.34
2018-08-25T03:29:19.643Z,73.95
2018-08-25T03:30:55.646Z,74.59
2018-08-25T03:32:31.336Z,75.97
2018-08-25T03:34:06.928Z,76.12
2018-08-25T03:35:42.526Z,76.46
2018-08-25T03:37:17.980Z,76.37
2018-08-25T03:38:53.526Z,76.16
2018-08-25T03:40:28.964Z,75.81
2018-08-25T03:42:04.477Z,76.75
2018-08-25T03:43:39.913Z,77.80
2018-08-25T03:45:15.428Z,78.28
2018-08-25T03:46:50.906Z,78.95
2018-08-25T03:48:26.400Z,78.62
2018-08-25T03:50:01.905Z,78.66
2018-08-25T03:51:37.709Z,78.82
2018-08-25T03:53:13.205Z,79.74
2018-08-25T03:54:48.744Z,79.50
2018-08-25T03:56:24.208Z,79.88
2018-08-25T03:57:59.666Z,79.91
2018-08-25T03:59:35.752Z,80.08
2018-08-25T04:01:11.561Z,80.44
2018-08-25T04:02:47.184Z,80.63
2018-08-25T04:04:22.650Z,80.30
2018-08-25T04:05:58.836Z,80.21
2018-08-25T04:07:34.678Z,80.44
2018-08-25T04:09:12.202Z,81.09
2018-08-25T04:10:47.645Z,81.23
2018-08-25T04:12:23.133Z,81.13
2018-08-25T04:13:58.608Z,80.96
2018-08-25T04:15:35.095Z,80.82
2018-08-25T04:17:11.287Z,80.44
2018-08-25T04:18:46.889Z,80.07
2018-08-25T04:20:22.324Z,79.79
2018-08-25T04:21:57.773Z,79.11
2018-08-25T04:23:33.276Z,79.73
2018-08-25T04:25:08.777Z,78.95
2018-08-25T04:26:44.212Z,78.82
2018-08-25T04:28:19.721Z,78.58
2018-08-25T04:29:56.010Z,79.21
2018-08-25T04:31:31.486Z,79.45
2018-08-25T04:33:06.985Z,79.24
2018-08-25T04:34:42.484Z,79.92
2018-08-25T04:36:18.061Z,81.17
2018-08-25T04:37:53.535Z,80.21
2018-08-25T04:39:29.053Z,80.15
2018-08-25T04:41:04.548Z,80.22
2018-08-25T04:42:39.951Z,80.58
2018-08-25T04:44:15.461Z,80.74
2018-08-25T04:45:50.937Z,80.89
2018-08-25T04:47:26.428Z,80.90
2018-08-25T04:49:01.968Z,80.70
2018-08-25T04:50:37.425Z,80.16
2018-08-25T04:52:12.885Z,79.94
2018-08-25T04:53:48.407Z,79.77
2018-08-25T04:55:23.884Z,79.83
2018-08-25T04:56:59.364Z,79.86
2018-08-25T04:58:34.833Z,79.05
2018-08-25T05:00:10.323Z,79.44
2018-08-25T05:01:45.887Z,78.99
2018-08-25T05:03:21.330Z,79.83
2018-08-25T05:04:56.839Z,79.51
2018-08-25T05:06:32.291Z,78.68
2018-08-25T05:08:09.028Z,79.01
2018-08-25T05:09:44.565Z,78.77
2018-08-25T05:11:20.012Z,79.34
2018-08-25T05:12:55.468Z,79.85
2018-08-25T05:14:30.925Z,80.20
2018-08-25T05:16:06.369Z,80.50
2018-08-25T05:17:41.822Z,80.07
2018-08-25T05:19:17.318Z,79.83
2018-08-25T05:20:52.879Z,79.54
2018-08-25T05:22:28.436Z,79.36
2018-08-25T05:24:04.361Z,79.04
2018-08-25T05:25:39.826Z,79.43
2018-08-25T05:27:15.293Z,79.01
2018-08-25T05:28:50.910Z,78.22
2018-08-25T05:30:26.396Z,78.75
2018-08-25T05:32:01.850Z,77.64
2018-08-25T05:33:37.367Z,77.38
2018-08-25T05:35:12.843Z,77.60
2018-08-25T05:36:48.342Z,78.10
2018-08-25T05:38:23.828Z,78.38
2018-08-25T05:39:59.277Z,78.46
2018-08-25T05:41:34.782Z,77.77
2018-08-25T05:43:10.245Z,78.65
2018-08-25T05:44:45.710Z,78.88
2018-08-25T05:46:21.295Z,78.62
2018-08-25T05:47:56.825Z,78.79
2018-08-25T05:49:32.262Z,79.43
2018-08-25T05:51:07.728Z,78.58
2018-08-25T05:52:43.162Z,77.74
2018-08-25T05:54:18.676Z,77.64
2018-08-25T05:55:54.198Z,76.87
2018-08-25T05:57:29.709Z,76.63
2018-08-25T05:59:05.178Z,76.20
2018-08-25T06:00:40.629Z,74.92
2018-08-25T06:02:16.120Z,74.63
2018-08-25T06:03:54.756Z,73.30
2018-08-25T06:05:30.237Z,73.68
2018-08-25T06:07:05.704Z,73.35
2018-08-25T06:08:41.192Z,73.71
2018-08-25T06:10:16.666Z,73.80
2018-08-25T06:11:54.828Z,74.66
2018-08-25T06:13:30.335Z,75.84
2018-08-25T06:15:06.079Z,76.34
2018-08-25T06:16:41.528Z,76.91
2018-08-25T06:18:17.001Z,76.04
2018-08-25T06:19:52.760Z,76.20
2018-08-25T06:21:28.261Z,76.27
2018-08-25T06:23:03.765Z,77.26
2018-08-25T06:24:39.284Z,76.36
2018-08-25T06:26:14.781Z,76.72
2018-08-25T06:27:50.359Z,77.01
2018-08-25T06:29:26.880Z,77.18
2018-08-25T06:31:02.511Z,77.89
2018-08-25T06:32:37.984Z,78.33
2018-08-25T06:34:13.496Z,78.51
2018-08-25T06:35:49.024Z,78.67
2018-08-25T06:37:24.496Z,77.65
2018-08-25T06:39:00.161Z,77.39
2018-08-25T06:40:35.664Z,75.90
2018-08-25T06:42:11.303Z,75.42
2018-08-25T06:43:46.809Z,75.33
2018-08-25T06:45:22.441Z,74.57
2018-08-25T06:46:57.957Z,74.23
2018-08-25T06:48:33.778Z,72.94
2018-08-25T06:50:09.257Z,72.20
2018-08-25T06:51:44.724Z,70.19
2018-08-25T06:53:20.320Z,68.50
2018-08-25T06:54:56.664Z,66.93
2018-08-25T06:56:32.518Z,65.93
2018-08-25T06:58:08.036Z,65.39
2018-08-25T06:59:43.533Z,66.08
2018-08-25T07:01:19.005Z,65.31
2018-08-25T07:02:54.522Z,65.66
2018-08-25T07:04:29.998Z,64.16
2018-08-25T07:06:05.565Z,63.89
2018-08-25T07:07:41.079Z,64.41
2018-08-25T07:09:16.554Z,65.01
2018-08-25T07:10:52.054Z,64.60
2018-08-25T07:12:27.515Z,64.65
2018-08-25T07:14:03.008Z,65.65
2018-08-25T07:15:38.505Z,65.90
2018-08-25T07:17:13.995Z,66.12
2018-08-25T07:18:49.806Z,65.11
2018-08-25T07:20:25.424Z,64.85
2018-08-25T07:22:00.883Z,65.71
2018-08-25T07:23:36.988Z,64.04
2018-08-25T07:25:12.461Z,63.30
2018-08-25T07:26:47.920Z,63.27
2018-08-25T07:28:23.441Z,61.61
2018-08-25T07:29:58.955Z,60.95
2018-08-25T07:31:34.492Z,61.19
2018-08-25T07:33:09.927Z,61.15
2018-08-25T07:34:45.417Z,59.94
2018-08-25T07:36:20.846Z,59.66
2018-08-25T07:37:56.349Z,58.26
2018-08-25T07:39:32.409Z,57.95
2018-08-25T07:41:07.898Z,58.12
2018-08-25T07:42:43.389Z,57.00
2018-08-25T07:44:20.362Z,56.88
2018-08-25T07:45:55.884Z,54.21
2018-08-25T07:47:31.387Z,54.02
2018-08-25T07:49:06.842Z,53.16
2018-08-25T07:50:42.321Z,53.49
2018-08-25T07:52:17.825Z,52.97
2018-08-25T07:53:53.769Z,52.32
2018-08-25T07:55:29.454Z,51.79
2018-08-25T07:57:05.764Z,52.75
2018-08-25T07:58:41.549Z,52.32
2018-08-25T08:00:17.101Z,51.53
2018-08-25T08:01:52.551Z,52.43
2018-08-25T08:03:28.025Z,51.20
2018-08-25T08:05:03.536Z,51.88
2018-08-25T08:06:38.992Z,50.17
2018-08-25T08:08:14.448Z,49.29
2018-08-25T08:09:49.957Z,47.67
2018-08-25T08:11:25.417Z,47.40
2018-08-25T08:13:00.879Z,47.60
2018-08-25T08:14:36.388Z,46.82
2018-08-25T08:16:12.319Z,46.78
2018-08-25T08:17:47.800Z,47.16
2018-08-25T08:19:23.325Z,47.02
2018-08-25T08:20:58.868Z,47.81
2018-08-25T08:22:34.386Z,47.30
2018-08-25T08:24:09.937Z,47.61
2018-08-25T08:25:45.577Z,47.55
2018-08-25T08:27:21.107Z,47.26
2018-08-25T08:28:56.796Z,47.33
2018-08-25T08:30:32.277Z,46.98
2018-08-25T08:32:14.515Z,46.58
2018-08-25T08:33:50.025Z,46.88
2018-08-25T08:35:25.767Z,46.48
2018-08-25T08:37:01.229Z,45.73
2018-08-25T08:38:38.078Z,45.43
2018-08-25T08:40:13.602Z,44.72
2018-08-25T08:41:49.549Z,45.54
2018-08-25T08:43:26.310Z,45.33
2018-08-25T08:45:01.855Z,45.20
2018-08-25T08:46:37.821Z,45.16
2018-08-25T08:48:13.958Z,45.12
2018-08-25T08:49:49.488Z,44.78
2018-08-25T08:51:25.629Z,43.76
2018-08-25T08:53:01.625Z,44.04
2018-08-25T08:54:37.149Z,44.13
2018-08-25T08:56:12.667Z,42.84
2018-08-25T08:57:48.154Z,42.44
2018-08-25T08:59:23.696Z,41.98
2018-08-25T09:00:59.248Z,41.37
2018-08-25T09:02:34.784Z,40.81
2018-08-25T09:04:10.244Z,40.26
2018-08-25T09:05:45.713Z,39.94
2018-08-25T09:07:21.363Z,39.33
2018-08-25T09:08:56.936Z,40.31
2018-08-25T09:10:32.509Z,39.55
2018-08-25T09:12:07.978Z,38.94
2018-08-25T09:13:43.549Z,39.06
2018-08-25T09:15:19.496Z,38.53
2018-08-25T09:16:54.969Z,37.97
2018-08-25T09:18:30.521Z,38.47
2018-08-25T09:20:06.539Z,40.18
2018-08-25T09:21:42.044Z,39.78
2018-08-25T09:23:17.484Z,39.43
2018-08-25T09:24:52.961Z,38.67
2018-08-25T09:26:28.430Z,39.30
2018-08-25T09:28:03.904Z,38.59
2018-08-25T09:29:40.411Z,38.73
2018-08-25T09:31:16.276Z,37.93
2018-08-25T09:32:51.740Z,37.91
2018-08-25T09:34:27.223Z,38.21
2018-08-25T09:36:03.144Z,37.74
2018-08-25T09:37:38.591Z,38.21
2018-08-25T09:39:14.165Z,38.19
2018-08-25T09:40:49.864Z,36.46
2018-08-25T09:42:25.361Z,36.50
2018-08-25T09:44:00.830Z,35.99
2018-08-25T09:45:36.812Z,37.28
2018-08-25T09:47:12.626Z,36.78
2018-08-25T09:48:48.152Z,37.02
2018-08-25T09:50:23.705Z,36.09
2018-08-25T09:51:59.251Z,35.74
2018-08-25T09:53:35.868Z,36.20
2018-08-25T09:55:11.313Z,37.50
2018-08-25T09:56:46.822Z,38.05
2018-08-25T09:58:22.261Z,37.90
2018-08-25T09:59:58.210Z,36.81
2018-08-25T10:01:37.928Z,36.88
2018-08-25T10:03:13.385Z,36.22
2018-08-25T10:04:50.128Z,36.01
2018-08-25T10:06:25.626Z,35.49
2018-08-25T10:08:01.109Z,35.51
2018-08-25T10:09:36.909Z,35.56
2018-08-25T10:11:12.406Z,35.77
2018-08-25T10:12:47.858Z,35.30
2018-08-25T10:14:23.348Z,35.26
2018-08-25T10:15:58.874Z,35.77
2018-08-25T10:17:34.323Z,36.12
2018-08-25T10:19:09.810Z,36.43
2018-08-25T10:20:45.345Z,36.49
2018-08-25T10:22:22.355Z,34.88
2018-08-25T10:23:57.859Z,34.42
2018-08-25T10:25:33.338Z,34.65
2018-08-25T10:27:08.775Z,34.92
2018-08-25T10:28:44.294Z,34.42
2018-08-25T10:30:19.732Z,35.25
2018-08-25T10:31:55.218Z,35.23
2018-08-25T10:33:30.717Z,34.48
2018-08-25T10:35:06.784Z,34.68
2018-08-25T10:36:42.801Z,34.56
2018-08-25T10:38:18.240Z,34.43
2018-08-25T10:39:53.710Z,35.69
2018-08-25T10:41:29.185Z,36.29
2018-08-25T10:43:04.709Z,36.63
2018-08-25T10:44:40.179Z,36.40
2018-08-25T10:46:16.592Z,35.59
2018-08-25T10:47:53.153Z,36.85
2018-08-25T10:49:28.668Z,36.63
2018-08-25T10:51:04.671Z,36.46
2018-08-25T10:52:40.150Z,35.98
2018-08-25T10:54:15.974Z,35.81
2018-08-25T10:55:52.313Z,36.07
2018-08-25T10:57:27.765Z,35.63
2018-08-25T10:59:04.834Z,35.77
2018-08-25T11:00:40.565Z,36.72
2018-08-25T11:02:24.497Z,36.83
2018-08-25T11:04:00.014Z,37.61
2018-08-25T11:05:35.552Z,37.99
2018-08-25T11:07:12.905Z,38.59
2018-08-25T11:08:48.539Z,38.54
2018-08-25T11:10:23.932Z,39.04
2018-08-25T11:11:59.406Z,38.71
2018-08-25T11:13:34.896Z,38.81
2018-08-25T11:15:10.470Z,40.03
2018-08-25T11:16:45.970Z,39.40
2018-08-25T11:18:21.469Z,39.29
2018-08-25T11:19:56.951Z,39.06
2018-08-25T11:21:32.430Z,38.26
2018-08-25T11:23:08.098Z,38.29
2018-08-25T11:24:43.676Z,37.76
2018-08-25T11:26:19.455Z,38.25
2018-08-25T11:27:55.001Z,37.89
2018-08-25T11:29:31.815Z,38.44
2018-08-25T11:31:09.400Z,38.68
2018-08-25T11:32:44.877Z,38.73
2018-08-25T11:34:20.429Z,39.66
2018-08-25T11:35:56.608Z,39.21
2018-08-25T11:37:32.179Z,39.17
2018-08-25T11:39:10.289Z,38.35
2018-08-25T11:40:45.773Z,37.94
2018-08-25T11:42:21.262Z,38.24
2018-08-25T11:43:57.236Z,38.04
2018-08-25T11:45:33.445Z,37.83
2018-08-25T11:47:13.924Z,38.19
2018-08-25T11:48:49.475Z,38.02
2018-08-25T11:50:26.394Z,38.29
2018-08-25T11:52:01.873Z,38.03
2018-08-25T11:53:37.418Z,38.51
2018-08-25T11:55:12.944Z,38.26
2018-08-25T11:56:48.441Z,37.52
2018-08-25T11:58:24.237Z,38.35
2018-08-25T11:59:59.793Z,37.64
2018-08-25T12:01:35.237Z,38.11
2018-08-25T12:03:10.954Z,38.88
2018-08-25T12:04:46.484Z,38.63
2018-08-25T12:06:22.374Z,37.53
2018-08-25T12:07:58.892Z,36.95
2018-08-25T12:09:34.424Z,36.81
2018-08-25T12:11:10.004Z,35.76
2018-08-25T12:12:45.438Z,36.33
2018-08-25T12:14:20.901Z,36.19
2018-08-25T12:15:58.208Z,35.92
2018-08-25T12:17:33.742Z,35.79
2018-08-25T12:19:09.344Z,35.83
2018-08-25T12:20:44.772Z,36.25
2018-08-25T12:22:20.250Z,35.80
2018-08-25T12:23:55.822Z,36.75
2018-08-25T12:25:31.379Z,36.34
2018-08-25T12:27:07.144Z,35.97
2018-08-25T12:28:42.670Z,35.84
2018-08-25T12:30:18.246Z,35.08
2018-08-25T12:31:53.749Z,37.02
2018-08-25T12:33:29.245Z,36.87
2018-08-25T12:35:07.502Z,35.97
2018-08-25T12:38:25.149Z,35.99
2018-08-25T12:40:01.183Z,35.94
2018-08-25T12:41:38.320Z,35.63
2018-08-25T12:43:13.782Z,35.77
2018-08-25T12:44:49.611Z,34.49
2018-08-25T12:46:25.066Z,34.84
2018-08-25T12:48:00.533Z,35.10
2018-08-25T12:49:37.879Z,35.75
2018-08-25T12:51:13.372Z,34.28
2018-08-25T12:52:49.101Z,34.26
2018-08-25T12:54:24.551Z,34.11
2018-08-25T12:56:00.023Z,34.19
2018-08-25T12:57:35.542Z,34.11
2018-08-25T12:59:11.072Z,35.08
2018-08-25T13:00:46.466Z,35.13
2018-08-25T13:02:21.982Z,34.71
2018-08-25T13:03:57.490Z,34.81
2018-08-25T13:05:32.962Z,34.36
2018-08-25T13:07:08.450Z,34.76
2018-08-25T13:08:43.901Z,34.18
2018-08-25T13:10:19.432Z,34.75
2018-08-25T13:11:54.892Z,35.16
2018-08-25T13:13:30.342Z,34.14
2018-08-25T13:15:07.012Z,33.20
2018-08-25T13:16:42.550Z,33.15
2018-08-25T13:18:18.056Z,33.86
2018-08-25T13:19:53.546Z,34.79
2018-08-25T13:21:29.025Z,33.75
2018-08-25T13:23:04.471Z,33.39
2018-08-25T13:24:39.962Z,33.37
2018-08-25T13:26:15.422Z,33.78
2018-08-25T13:27:50.938Z,33.35
2018-08-25T13:29:26.471Z,33.33
2018-08-25T13:31:02.062Z,32.91
2018-08-25T13:32:37.453Z,32.78
2018-08-25T13:34:14.107Z,33.53
2018-08-25T13:35:49.598Z,33.08
2018-08-25T13:37:25.117Z,33.44
2018-08-25T13:39:00.957Z,32.84
2018-08-25T13:40:37.449Z,32.81
2018-08-25T13:42:13.670Z,32.88
2018-08-25T13:43:49.141Z,32.91
2018-08-25T13:45:24.810Z,32.67
2018-08-25T13:47:00.240Z,32.21
2018-08-25T13:48:35.687Z,32.78
2018-08-25T13:50:11.193Z,34.04
2018-08-25T13:51:46.689Z,33.35
2018-08-25T13:53:22.203Z,32.76
2018-08-25T13:54:57.719Z,32.05
2018-08-25T13:56:33.293Z,32.23
2018-08-25T13:58:08.769Z,32.76
2018-08-25T13:59:44.310Z,33.00
2018-08-25T14:01:19.787Z,32.60
2018-08-25T14:02:55.334Z,32.58
2018-08-25T14:04:30.894Z,32.91
2018-08-25T14:06:06.833Z,32.90
2018-08-25T14:07:42.287Z,32.53
2018-08-25T14:09:17.802Z,33.55
2018-08-25T14:10:53.305Z,33.96
2018-08-25T14:12:29.209Z,33.51
2018-08-25T14:14:04.746Z,33.43
2018-08-25T14:15:40.272Z,33.64
2018-08-25T14:17:15.884Z,33.48
2018-08-25T14:18:52.390Z,33.46
2018-08-25T14:20:27.955Z,33.52
2018-08-25T14:22:03.436Z,33.33
2018-08-25T14:23:38.968Z,33.19
2018-08-25T14:25:14.570Z,32.46
2018-08-25T14:26:50.107Z,33.09
2018-08-25T14:28:25.546Z,32.95
2018-08-25T14:30:01.002Z,34.44
2018-08-25T14:31:36.492Z,35.23
2018-08-25T14:33:12.285Z,34.78
2018-08-25T14:34:49.039Z,34.98
2018-08-25T14:36:24.503Z,34.31
2018-08-25T14:38:00.249Z,35.00
2018-08-25T14:39:35.765Z,34.67
2018-08-25T14:41:11.259Z,34.37
2018-08-25T14:42:46.797Z,34.73
2018-08-25T14:44:22.271Z,35.19
2018-08-25T14:45:57.814Z,34.96
2018-08-25T14:47:33.601Z,34.73
2018-08-25T14:49:09.084Z,34.86
2018-08-25T14:50:44.588Z,35.49
2018-08-25T14:52:20.109Z,35.12
2018-08-25T14:53:55.638Z,34.69
2018-08-25T14:55:31.690Z,34.13
2018-08-25T14:57:07.174Z,34.59
2018-08-25T14:58:42.625Z,35.53
2018-08-25T15:00:18.150Z,36.58
2018-08-25T15:01:53.705Z,36.40
2018-08-25T15:03:29.162Z,36.04
2018-08-25T15:05:05.278Z,36.23
2018-08-25T15:06:40.804Z,36.79
2018-08-25T15:08:16.321Z,36.41
2018-08-25T15:09:51.786Z,35.19
2018-08-25T15:11:27.393Z,35.17
2018-08-25T15:13:03.377Z,34.00
2018-08-25T15:14:38.888Z,34.13
2018-08-25T15:16:19.799Z,34.29
2018-08-25T15:17:58.673Z,35.57
2018-08-25T15:19:34.570Z,36.10
2018-08-25T15:21:10.069Z,36.09
2018-08-25T15:22:46.058Z,36.16
2018-08-25T15:24:21.579Z,35.98
2018-08-25T15:25:58.547Z,36.12
2018-08-25T15:27:34.300Z,35.42
2018-08-25T15:29:09.869Z,36.09
2018-08-25T15:30:47.389Z,36.19
2018-08-25T15:32:23.645Z,35.66
2018-08-25T15:34:00.264Z,36.61
2018-08-25T15:35:36.454Z,37.24
2018-08-25T15:37:12.103Z,37.46
2018-08-25T15:38:47.839Z,37.81
2018-08-25T15:40:23.482Z,37.80
2018-08-25T15:42:00.750Z,38.10
2018-08-25T15:43:36.390Z,37.27
2018-08-25T15:45:12.085Z,37.61
2018-08-25T15:46:48.005Z,37.01
2018-08-25T15:48:23.840Z,38.76
2018-08-25T15:50:00.122Z,38.22
2018-08-25T15:51:35.606Z,37.94
2018-08-25T15:53:11.173Z,36.83
2018-08-25T15:54:46.659Z,37.25
2018-08-25T15:56:22.150Z,36.61
2018-08-25T15:57:57.792Z,37.52
2018-08-25T15:59:33.271Z,36.26
2018-08-25T16:01:08.742Z,36.25
2018-08-25T16:02:44.209Z,37.12
2018-08-25T16:04:19.808Z,37.30
2018-08-25T16:05:55.433Z,37.58
2018-08-25T16:07:32.470Z,37.59
2018-08-25T16:09:23.143Z,36.96
2018-08-25T16:10:58.765Z,37.38
2018-08-25T16:12:34.407Z,37.22
2018-08-25T16:14:09.861Z,37.15
2018-08-25T16:15:47.258Z,36.96
2018-08-25T16:17:22.897Z,36.16
2018-08-25T16:18:58.409Z,37.83
2018-08-25T16:20:33.854Z,36.97
2018-08-25T16:22:11.129Z,35.97
2018-08-25T16:23:46.636Z,35.69
2018-08-25T16:25:22.213Z,35.12
2018-08-25T16:26:57.916Z,34.81
2018-08-25T16:28:34.059Z,35.68
2018-08-25T16:30:09.977Z,34.59
2018-08-25T16:31:45.487Z,34.84
2018-08-25T16:33:21.184Z,34.44
2018-08-25T16:34:56.729Z,33.61
2018-08-25T16:36:32.267Z,34.37
2018-08-25T16:38:08.762Z,33.92
2018-08-25T16:39:44.500Z,34.19
2018-08-25T16:41:20.032Z,34.43
2018-08-25T16:42:55.894Z,34.49
2018-08-25T16:44:31.423Z,33.98
2018-08-25T16:46:08.002Z,34.72
2018-08-25T16:47:43.566Z,34.20
2018-08-25T16:49:19.948Z,34.34
2018-08-25T16:50:55.376Z,34.19
2018-08-25T16:52:30.832Z,34.55
2018-08-25T16:54:07.307Z,34.52
2018-08-25T16:55:42.817Z,34.80
2018-08-25T16:57:18.306Z,34.66
2018-08-25T16:58:54.004Z,34.33
2018-08-25T17:00:29.538Z,34.12
2018-08-25T17:02:05.490Z,34.45
2018-08-25T17:03:41.053Z,34.96
2018-08-25T17:05:16.683Z,35.60
2018-08-25T17:06:53.266Z,35.88
2018-08-25T17:08:28.961Z,35.40
2018-08-25T17:10:04.472Z,35.65
2018-08-25T17:11:40.003Z,35.87
2018-08-25T17:13:15.459Z,35.65
2018-08-25T17:14:51.344Z,36.47
2018-08-25T17:16:27.804Z,36.38
2018-08-25T17:18:03.252Z,36.70
2018-08-25T17:19:38.739Z,36.05
2018-08-25T17:21:15.560Z,37.04
2018-08-25T17:22:51.162Z,36.30
2018-08-25T17:24:26.651Z,36.21
2018-08-25T17:26:02.136Z,36.24
2018-08-25T17:27:37.820Z,36.36
2018-08-25T17:29:19.952Z,36.96
2018-08-25T17:30:55.435Z,36.32
2018-08-25T17:32:30.958Z,36.50
2018-08-25T17:34:07.430Z,36.97
2018-08-25T17:35:42.908Z,37.71
2018-08-25T17:37:18.454Z,37.42
2018-08-25T17:38:54.088Z,37.31
2018-08-25T17:40:29.570Z,37.04
2018-08-25T17:42:05.123Z,37.91
2018-08-25T17:43:40.794Z,37.41
2018-08-25T17:45:16.318Z,37.61
2018-08-25T17:46:52.302Z,38.63
2018-08-25T17:48:27.778Z,39.21
2018-08-25T17:50:03.305Z,39.77
2018-08-25T17:51:38.785Z,38.91
2018-08-25T17:53:14.281Z,38.96
2018-08-25T17:54:50.237Z,39.10
2018-08-25T17:56:26.898Z,39.87
2018-08-25T17:58:03.195Z,39.75
2018-08-25T17:59:39.307Z,40.98
2018-08-25T18:01:15.430Z,41.98
2018-08-25T18:02:51.098Z,41.59
2018-08-25T18:04:26.826Z,43.29
2018-08-25T18:06:02.316Z,44.38
2018-08-25T18:07:37.801Z,44.74
2018-08-25T18:09:13.299Z,44.82
2018-08-25T18:10:49.080Z,45.01
2018-08-25T18:12:24.496Z,45.50
2018-08-25T18:14:00.308Z,45.79
2018-08-25T18:15:35.853Z,46.67
2018-08-25T18:17:11.389Z,46.98
2018-08-25T18:18:46.977Z,47.28
2018-08-25T18:20:23.686Z,47.91
2018-08-25T18:21:59.750Z,48.09
2018-08-25T18:23:37.222Z,48.74
2018-08-25T18:25:12.755Z,48.59
2018-08-25T18:26:48.266Z,48.78
2018-08-25T18:28:23.750Z,49.31
2018-08-25T18:29:59.226Z,49.44
2018-08-25T18:31:35.747Z,49.93
2018-08-25T18:33:11.303Z,50.03
2018-08-25T18:34:46.790Z,50.45
2018-08-25T18:36:22.597Z,50.49
2018-08-25T18:37:58.261Z,50.64
2018-08-25T18:39:33.888Z,51.34
2018-08-25T18:41:09.333Z,51.56
2018-08-25T18:42:45.486Z,51.48
2018-08-25T18:44:20.971Z,52.63
2018-08-25T18:45:56.477Z,52.59
2018-08-25T18:47:32.302Z,52.96
2018-08-25T18:49:07.801Z,52.46
2018-08-25T18:50:43.909Z,52.80
2018-08-25T18:52:20.102Z,52.98
2018-08-25T18:53:55.704Z,53.34
2018-08-25T18:55:31.654Z,53.19
2018-08-25T18:57:07.134Z,53.15
2018-08-25T18:58:43.847Z,53.20
2018-08-25T19:00:19.603Z,52.98
2018-08-25T19:01:55.211Z,53.44
2018-08-25T19:03:30.597Z,53.57
2018-08-25T19:05:08.099Z,54.56
2018-08-25T19:06:44.166Z,54.83
2018-08-25T19:08:19.671Z,54.91
2018-08-25T19:09:55.120Z,55.18
2018-08-25T19:11:30.633Z,55.14
2018-08-25T19:13:06.097Z,55.27
2018-08-25T19:14:41.586Z,55.36
2018-08-25T19:16:17.879Z,55.59
2018-08-25T19:17:53.653Z,56.21
2018-08-25T19:19:29.156Z,56.58
2018-08-25T19:21:04.694Z,56.67
2018-08-25T19:22:40.158Z,56.56
2018-08-25T19:24:15.830Z,56.90
2018-08-25T19:25:51.152Z,57.28
2018-08-25T19:27:27.660Z,57.26
2018-08-25T19:29:03.920Z,57.27
2018-08-25T19:30:39.419Z,57.62
2018-08-25T19:32:15.400Z,57.75
2018-08-25T19:33:50.976Z,57.89
2018-08-25T19:35:26.523Z,57.95
2018-08-25T19:37:01.970Z,58.23
2018-08-25T19:38:37.480Z,57.75
2018-08-25T19:40:12.986Z,58.48
2018-08-25T19:41:48.513Z,58.22
2018-08-25T19:43:24.019Z,59.26
2018-08-25T19:44:59.572Z,59.31
2018-08-25T19:46:35.058Z,59.17
2018-08-25T19:48:11.943Z,59.41
2018-08-25T19:49:49.694Z,59.35
2018-08-25T19:51:25.617Z,58.83
2018-08-25T19:53:01.583Z,58.94
2018-08-25T19:54:37.018Z,58.86
2018-08-25T19:56:12.594Z,58.42
2018-08-25T19:57:48.491Z,58.46
2018-08-25T19:59:24.264Z,58.51
2018-08-25T20:00:59.765Z,57.91
2018-08-25T20:02:35.257Z,58.20
2018-08-25T20:04:10.858Z,57.92
2018-08-25T20:05:46.435Z,58.42
2018-08-25T20:07:21.902Z,58.30
2018-08-25T20:08:57.401Z,58.24
2018-08-25T20:10:33.581Z,57.75
2018-08-25T20:12:09.044Z,58.02
2018-08-25T20:13:44.621Z,57.96
2018-08-25T20:15:21.962Z,57.07
2018-08-25T20:16:57.524Z,56.48
2018-08-25T20:18:33.727Z,56.45
2018-08-25T20:20:09.226Z,56.60
2018-08-25T20:21:44.729Z,56.21
2018-08-25T20:23:20.222Z,55.54
2018-08-25T20:24:55.737Z,55.34
2018-08-25T20:26:31.264Z,55.11
2018-08-25T20:28:06.777Z,55.34
2018-08-25T20:29:42.294Z,55.40
2018-08-25T20:31:17.857Z,56.46
2018-08-25T20:32:53.613Z,56.01
2018-08-25T20:34:29.066Z,57.07